createdAt,value
2023-01-10T00:04:36.408Z,81.08
2023-01-10T00:09:58.110Z,80.80
2023-01-10T00:15:20.066Z,79.77
2023-01-10T00:20:41.882Z,80.47
2023-01-10T00:26:03.617Z,80.63
2023-01-10T00:31:25.513Z,79.73
2023-01-10T00:36:48.000Z,80.50
2023-01-10T00:42:30.207Z,80.79
2023-01-10T00:47:52.422Z,82.03
2023-01-10T00:53:14.219Z,82.35
2023-01-10T00:58:36.006Z,82.62
2023-01-10T01:03:59.371Z,83.08
2023-01-10T01:09:21.096Z,83.19
2023-01-10T01:14:42.795Z,84.45
2023-01-10T01:20:04.949Z,83.54
2023-01-10T01:25:26.891Z,83.28
2023-01-10T01:30:49.265Z,82.46
2023-01-10T01:36:11.991Z,82.10
2023-01-10T01:41:52.453Z,80.88
2023-01-10T01:47:26.916Z,79.24
2023-01-10T01:52:53.183Z,78.77
2023-01-10T01:58:20.277Z,79.26
2023-01-10T02:03:45.201Z,78.31
2023-01-10T02:09:31.626Z,79.51
2023-01-10T02:14:54.018Z,77.93
2023-01-10T02:20:17.571Z,79.13
2023-01-10T02:25:57.813Z,79.41
2023-01-10T02:31:35.997Z,82.73
2023-01-10T02:37:07.518Z,83.91
2023-01-10T02:43:14.019Z,85.29
2023-01-10T02:48:35.752Z,86.44
2023-01-10T02:54:08.224Z,87.70
2023-01-10T02:59:53.428Z,84.58
2023-01-10T03:05:40.252Z,85.96
2023-01-10T03:11:10.215Z,84.28
2023-01-10T03:16:35.135Z,84.87
2023-01-10T03:22:01.249Z,83.94
2023-01-10T03:27:38.755Z,84.04
2023-01-10T03:33:00.788Z,83.28
2023-01-10T03:38:44.930Z,82.88
2023-01-10T03:44:37.034Z,82.34
2023-01-10T03:50:15.455Z,83.01
2023-01-10T03:55:37.528Z,82.31
2023-01-10T04:00:59.399Z,80.80
2023-01-10T04:06:21.215Z,83.06
2023-01-10T04:11:42.883Z,83.03
2023-01-10T04:17:04.676Z,81.10
2023-01-10T04:22:26.613Z,82.88
2023-01-10T04:27:52.250Z,82.56
2023-01-10T04:33:13.922Z,82.33
2023-01-10T04:38:35.633Z,81.63
2023-01-10T04:43:57.298Z,81.89
2023-01-10T04:49:18.998Z,81.33
2023-01-10T04:54:40.663Z,81.60
2023-01-10T05:00:02.326Z,80.46
2023-01-10T05:05:24.679Z,79.75
2023-01-10T05:10:46.361Z,80.17
2023-01-10T05:16:08.570Z,78.69
2023-01-10T05:21:30.308Z,77.40
2023-01-10T05:26:51.998Z,76.96
2023-01-10T05:32:13.725Z,75.75
2023-01-10T05:37:36.848Z,76.71
2023-01-10T05:42:59.488Z,75.78
2023-01-10T05:48:21.244Z,75.82
2023-01-10T05:53:43.347Z,76.50
2023-01-10T05:59:07.984Z,75.65
2023-01-10T06:04:33.427Z,74.12
2023-01-10T06:09:55.099Z,74.33
2023-01-10T06:15:17.320Z,74.89
2023-01-10T06:20:42.771Z,73.00
2023-01-10T06:26:04.599Z,74.60
2023-01-10T06:31:26.937Z,73.85
2023-01-10T06:36:48.713Z,72.21
2023-01-10T06:42:10.382Z,73.96
2023-01-10T06:47:32.099Z,73.71
2023-01-10T06:53:02.887Z,73.74
2023-01-10T06:58:24.656Z,73.67
2023-01-10T07:03:46.906Z,72.20
2023-01-10T07:09:09.225Z,73.69
2023-01-10T07:14:30.953Z,72.81
2023-01-10T07:19:52.666Z,73.57
2023-01-10T07:25:14.333Z,72.14
2023-01-10T07:30:37.511Z,73.03
2023-01-10T07:36:00.869Z,73.30
2023-01-10T07:41:22.602Z,72.85
2023-01-10T07:46:44.391Z,73.73
2023-01-10T07:52:08.853Z,72.73
2023-01-10T07:57:30.553Z,72.65
2023-01-10T08:02:56.502Z,74.19
2023-01-10T08:08:18.609Z,72.92
2023-01-10T08:13:40.331Z,73.72
2023-01-10T08:19:02.013Z,72.20
2023-01-10T08:24:23.699Z,73.15
2023-01-10T08:29:45.531Z,73.41
2023-01-10T08:35:07.569Z,73.27
2023-01-10T08:40:29.319Z,72.40
2023-01-10T08:45:51.004Z,71.52
2023-01-10T08:51:12.814Z,72.23
2023-01-10T08:56:36.152Z,71.39
2023-01-10T09:01:59.682Z,71.79
2023-01-10T09:07:21.385Z,72.25
2023-01-10T09:12:54.884Z,72.73
2023-01-10T09:18:16.556Z,71.56
2023-01-10T09:23:39.905Z,70.09
2023-01-10T09:29:01.659Z,71.60
2023-01-10T09:34:24.895Z,72.18
2023-01-10T09:39:46.716Z,73.87
2023-01-10T09:45:21.396Z,74.63
2023-01-10T09:50:46.129Z,75.32
2023-01-10T09:56:08.621Z,74.08
2023-01-10T10:01:37.174Z,74.98
2023-01-10T10:06:59.243Z,77.31
2023-01-10T10:12:35.879Z,78.73
2023-01-10T10:18:31.340Z,80.76
2023-01-10T10:24:09.088Z,81.59
2023-01-10T10:29:42.830Z,79.23
2023-01-10T10:35:15.207Z,78.33
2023-01-10T10:40:40.832Z,78.33
2023-01-10T10:46:05.545Z,78.59
2023-01-10T10:51:39.582Z,80.24
2023-01-10T10:57:01.341Z,80.30
2023-01-10T11:02:29.589Z,79.32
2023-01-10T11:07:54.556Z,77.72
2023-01-10T11:13:31.139Z,78.34
2023-01-10T11:19:23.577Z,76.56
2023-01-10T11:24:54.096Z,77.45
2023-01-10T11:30:22.909Z,77.54
2023-01-10T11:35:58.629Z,78.02
2023-01-10T11:41:20.236Z,78.42
2023-01-10T11:46:46.937Z,75.07
2023-01-10T11:52:26.345Z,74.70
2023-01-10T11:57:57.311Z,74.84
2023-01-10T12:03:37.380Z,74.92
2023-01-10T12:08:59.245Z,73.62
2023-01-10T12:14:20.982Z,72.71
2023-01-10T12:19:42.780Z,73.07
2023-01-10T12:25:16.976Z,71.35
2023-01-10T12:30:44.374Z,71.16
2023-01-10T12:36:44.661Z,70.29
2023-01-10T12:42:27.670Z,70.99
2023-01-10T12:47:58.994Z,68.58
2023-01-10T12:53:48.209Z,68.13
2023-01-10T12:59:48.520Z,68.16
2023-01-10T13:05:20.440Z,66.74
2023-01-10T13:10:45.914Z,65.46
2023-01-10T13:16:42.776Z,64.36
2023-01-10T13:22:23.624Z,63.68
2023-01-10T13:27:45.436Z,64.56
2023-01-10T13:33:20.543Z,63.18
2023-01-10T13:38:51.389Z,62.71
2023-01-10T13:44:15.207Z,62.89
2023-01-10T13:49:41.615Z,61.48
2023-01-10T13:55:20.631Z,62.42
2023-01-10T14:01:08.575Z,61.46
2023-01-10T14:06:30.671Z,62.65
2023-01-10T14:11:57.711Z,63.46
2023-01-10T14:17:28.016Z,61.37
2023-01-10T14:23:17.157Z,62.96
2023-01-10T14:28:41.244Z,60.47
2023-01-10T14:34:04.863Z,59.94
2023-01-10T14:39:28.301Z,61.32
2023-01-10T14:45:17.451Z,61.20
2023-01-10T14:50:39.177Z,60.52
2023-01-10T14:56:01.078Z,59.79
2023-01-10T15:01:29.652Z,63.62
2023-01-10T15:06:52.982Z,62.44
2023-01-10T15:12:16.827Z,60.82
2023-01-10T15:17:39.574Z,62.83
2023-01-10T15:23:01.950Z,61.63
2023-01-10T15:28:23.694Z,62.97
2023-01-10T15:33:56.222Z,63.79
2023-01-10T15:39:30.705Z,62.45
2023-01-10T15:44:52.822Z,62.84
2023-01-10T15:50:21.449Z,63.70
2023-01-10T15:55:53.409Z,63.90
2023-01-10T16:01:16.447Z,63.95
2023-01-10T16:06:38.212Z,64.20
2023-01-10T16:12:18.180Z,62.86
2023-01-10T16:17:39.878Z,63.76
2023-01-10T16:23:03.004Z,63.53
2023-01-10T16:28:27.351Z,64.23
2023-01-10T16:33:49.338Z,64.54
2023-01-10T16:39:18.291Z,65.69
2023-01-10T16:44:41.568Z,65.31
2023-01-10T16:50:03.355Z,64.88
2023-01-10T16:55:33.454Z,64.14
2023-01-10T17:00:58.477Z,63.33
2023-01-10T17:06:20.297Z,63.37
2023-01-10T17:11:42.568Z,63.42
2023-01-10T17:17:04.762Z,63.94
2023-01-10T17:22:26.477Z,63.03
2023-01-10T17:27:48.232Z,63.76
2023-01-10T17:33:13.039Z,63.47
2023-01-10T17:38:34.764Z,60.98
2023-01-10T17:43:56.431Z,60.56
2023-01-10T17:49:18.104Z,59.59
2023-01-10T17:54:39.792Z,61.31
2023-01-10T18:00:01.685Z,60.98
2023-01-10T18:05:23.477Z,61.48
2023-01-10T18:10:45.789Z,61.38
2023-01-10T18:16:07.544Z,61.19
2023-01-10T18:21:29.344Z,61.42
2023-01-10T18:26:51.062Z,61.51
2023-01-10T18:32:12.733Z,61.83
2023-01-10T18:37:34.447Z,60.76
2023-01-10T18:42:58.284Z,60.21
2023-01-10T18:48:21.185Z,60.35
2023-01-10T18:53:43.219Z,60.98
2023-01-10T18:59:05.104Z,59.84
2023-01-10T19:04:26.922Z,60.98
2023-01-10T19:09:48.621Z,61.19
2023-01-10T19:15:10.897Z,61.66
2023-01-10T19:20:32.677Z,61.42
2023-01-10T19:25:58.357Z,60.05
2023-01-10T19:31:26.113Z,60.77
2023-01-10T19:36:47.868Z,60.87
2023-01-10T19:42:09.583Z,60.88
2023-01-10T19:47:31.284Z,60.69
2023-01-10T19:52:52.975Z,60.25
2023-01-10T19:58:14.697Z,59.87
2023-01-10T20:03:37.823Z,60.25
2023-01-10T20:08:59.499Z,60.56
2023-01-10T20:14:22.070Z,60.22
2023-01-10T20:19:48.657Z,61.04
2023-01-10T20:25:10.969Z,60.68
2023-01-10T20:30:32.721Z,59.76
2023-01-10T20:35:56.377Z,59.59
2023-01-10T20:41:21.024Z,59.25
2023-01-10T20:46:42.784Z,60.12
2023-01-10T20:52:04.646Z,60.05
2023-01-10T20:57:26.365Z,58.65
2023-01-10T21:02:48.135Z,57.69
2023-01-10T21:08:09.828Z,57.21
2023-01-10T21:13:31.826Z,59.26
2023-01-10T21:18:53.546Z,58.18
2023-01-10T21:24:15.755Z,57.36
2023-01-10T21:29:37.551Z,58.87
2023-01-10T21:34:59.301Z,59.89
2023-01-10T21:40:21.028Z,60.90
2023-01-10T21:45:42.792Z,62.59
2023-01-10T21:51:04.619Z,62.34
2023-01-10T21:56:26.330Z,61.90
2023-01-10T22:01:48.082Z,64.76
2023-01-10T22:07:09.836Z,64.28
2023-01-10T22:12:31.768Z,63.83
2023-01-10T22:17:53.517Z,65.54
2023-01-10T22:23:15.299Z,64.61
2023-01-10T22:28:37.053Z,64.38
2023-01-10T22:33:58.725Z,64.72
2023-01-10T22:39:20.527Z,64.68
2023-01-10T22:44:42.233Z,65.13
2023-01-10T22:50:04.210Z,66.29
2023-01-10T22:55:25.996Z,66.11
2023-01-10T23:00:48.662Z,66.24
2023-01-10T23:06:11.323Z,66.06
2023-01-10T23:11:33.030Z,66.82
2023-01-10T23:16:55.202Z,65.95
2023-01-10T23:22:16.893Z,65.22
2023-01-10T23:27:38.837Z,65.53
2023-01-10T23:33:00.515Z,64.46
2023-01-10T23:38:22.334Z,64.53
2023-01-10T23:43:44.109Z,64.59
2023-01-10T23:49:05.880Z,63.78
2023-01-10T23:54:27.576Z,63.69
2023-01-10T23:59:49.283Z,63.55
